Binghamton, New York
Current Conditions -  °F | °C
As of 4:53 AM on Friday 31 Oct 2014 (Local Time) from KBGM Reporting Station
Clear Clear  
Wind Chill:   Ceiling: Unl
Heat Index:   Visibility: 10mi
Dew Point: -1°   Wind: 3mph
Humidity: 89%   Direction: 210°SSW
Pressure: 29.98"   Gusts: NA
Location:  42.1°N, 75.91°W
Report Text: KBGM 310853Z AUTO 21003KT 10SM CLR 01/M01 A2998 RMK AO2 SLP165 T00061011 56005
Loading
Personal Weather Stations






























Interactive Weather Map New forecast layout! Learn more

10-Day Weather Forecast

Advertisements
Track Severe Weather on mobile